SAS weather

Salton Sea Airport
Salton City, California, United States

Public forecast

Using degrees Fahrenheit for public forecast. Weather courtesy of forecast.io.

METAR (pilot weather report)

Closest report is Jacqueline Cochran Regional Airport, 25.4 nm (47.0 km) NNW. Retrieved 2019/09/22 16:52 UTC (35 minutes ago):

KTRM 221652Z AUTO 14005KT 10SM CLR 30/07 A2988 RMK AO2 SLP131 T03000072 $

TAF (pilot weather forecast)

Closest forecast is Jacqueline Cochran Regional Airport, 25.4 nm (47.0 km) NNW. Retrieved 2019/09/22 12:22 UTC (5 hours ago):

TAF KTRM 221120Z 2212/2312 VRB04KT P6SM SCT250 FM221900 14009KT P6SM SCT200 FM230100 VRB05KT P6SM SCT200